Terminal Aerodrome Forecast
Issued by NWS

Home | Current Version | Previous Version | Text Only | Print | Product List | Glossary On
Versions: 1 2 3 4 5 6 7 8 9 10 11 12
000
FTUS42 TJSJ 011700
TAFIST
TAF
TIST 011736Z 0118/0218 14012KT P6SM VCSH FEW040
     FM012300 09008KT P6SM FEW025
     FM021200 12012KT P6SM VCSH SCT025=

USA.gov is the U.S. government's official web portal to all federal, state and local government web resources and services.